createdAt,value
2023-06-19T00:04:34.097Z,91.50
2023-06-19T00:06:07.606Z,91.48
2023-06-19T00:07:39.867Z,91.51
2023-06-19T00:09:12.058Z,91.05
2023-06-19T00:10:44.291Z,91.08
2023-06-19T00:12:16.465Z,91.11
2023-06-19T00:13:48.661Z,90.93
2023-06-19T00:15:20.826Z,91.13
2023-06-19T00:16:53.080Z,91.01
2023-06-19T00:20:00.617Z,90.70
2023-06-19T00:21:33.075Z,90.80
2023-06-19T00:23:05.312Z,90.92
2023-06-19T00:24:37.664Z,90.94
2023-06-19T00:26:10.452Z,90.97
2023-06-19T00:27:42.604Z,91.22
2023-06-19T00:29:15.504Z,91.30
2023-06-19T00:30:47.747Z,91.31
2023-06-19T00:32:20.126Z,91.28
2023-06-19T00:33:52.358Z,91.46
2023-06-19T00:35:24.803Z,91.35
2023-06-19T00:36:57.684Z,91.59
2023-06-19T00:38:29.970Z,91.55
2023-06-19T00:40:05.228Z,91.51
2023-06-19T00:41:37.740Z,91.74
2023-06-19T00:43:10.084Z,91.34
2023-06-19T00:44:42.360Z,91.70
2023-06-19T00:46:14.780Z,91.57
2023-06-19T00:47:47.335Z,91.49
2023-06-19T00:49:19.891Z,91.35
2023-06-19T00:50:52.382Z,91.59
2023-06-19T00:52:24.474Z,91.59
2023-06-19T00:53:56.670Z,91.32
2023-06-19T00:55:33.771Z,91.62
2023-06-19T00:57:06.420Z,91.52
2023-06-19T00:58:38.549Z,91.65
2023-06-19T01:00:13.827Z,91.76
2023-06-19T01:01:46.718Z,91.97
2023-06-19T01:03:19.231Z,91.70
2023-06-19T01:04:53.483Z,91.77
2023-06-19T01:06:29.932Z,91.79
2023-06-19T01:09:03.630Z,91.73
2023-06-19T01:10:40.583Z,91.49
2023-06-19T01:12:18.462Z,91.52
2023-06-19T01:13:59.532Z,91.51
2023-06-19T01:15:31.839Z,91.37
2023-06-19T01:17:04.579Z,91.43
2023-06-19T01:18:37.447Z,91.42
2023-06-19T01:20:12.543Z,91.61
2023-06-19T01:21:44.701Z,91.25
2023-06-19T01:23:17.283Z,91.36
2023-06-19T01:24:49.433Z,91.51
2023-06-19T01:26:29.310Z,90.89
2023-06-19T01:28:01.619Z,90.89
2023-06-19T01:29:33.793Z,90.98
2023-06-19T01:31:13.573Z,90.88
2023-06-19T01:33:08.268Z,90.72
2023-06-19T01:34:41.385Z,91.26
2023-06-19T01:36:13.633Z,91.00
2023-06-19T01:37:46.587Z,91.24
2023-06-19T01:39:20.039Z,90.98
2023-06-19T01:40:54.337Z,91.23
2023-06-19T01:42:27.889Z,91.62
2023-06-19T01:44:00.990Z,91.33
2023-06-19T01:45:33.628Z,91.40
2023-06-19T01:47:11.602Z,91.30
2023-06-19T01:48:46.940Z,91.34
2023-06-19T01:50:19.150Z,91.14
2023-06-19T01:51:51.799Z,91.42
2023-06-19T01:53:24.220Z,91.44
2023-06-19T01:54:56.714Z,91.43
2023-06-19T01:56:29.313Z,91.68
2023-06-19T01:58:01.486Z,91.74
2023-06-19T01:59:33.589Z,91.57
2023-06-19T02:01:05.704Z,91.35
2023-06-19T02:02:38.578Z,91.44
2023-06-19T02:05:57.063Z,91.29
2023-06-19T02:07:29.316Z,91.39
2023-06-19T02:12:28.249Z,91.29
2023-06-19T02:14:08.139Z,90.78
2023-06-19T02:15:40.350Z,90.86
2023-06-19T02:22:19.840Z,90.65
2023-06-19T02:23:52.041Z,90.58
2023-06-19T02:25:24.279Z,90.57
2023-06-19T02:26:56.478Z,90.72
2023-06-19T02:28:28.621Z,90.80
2023-06-19T02:30:00.962Z,90.93
2023-06-19T02:31:33.068Z,91.06
2023-06-19T02:33:05.260Z,91.12
2023-06-19T02:34:37.492Z,90.98
2023-06-19T02:36:09.589Z,91.18
2023-06-19T02:39:19.764Z,91.54
2023-06-19T02:40:52.017Z,91.54
2023-06-19T02:42:24.140Z,91.40
2023-06-19T02:43:56.305Z,91.16
2023-06-19T02:45:31.371Z,91.37
2023-06-19T02:47:03.462Z,91.27
2023-06-19T02:48:36.138Z,90.94
2023-06-19T02:50:08.685Z,91.23
2023-06-19T02:51:42.364Z,91.17
2023-06-19T02:53:14.709Z,90.98
2023-06-19T02:54:46.942Z,90.91
2023-06-19T02:56:19.345Z,90.98
2023-06-19T02:57:51.577Z,91.14
2023-06-19T02:59:23.743Z,91.02
2023-06-19T03:00:56.497Z,90.76
2023-06-19T03:26:12.412Z,91.29
2023-06-19T03:27:44.717Z,91.33
2023-06-19T03:29:16.845Z,91.42
2023-06-19T03:30:49.003Z,91.47
2023-06-19T03:32:21.693Z,91.88
2023-06-19T03:33:53.888Z,91.70
2023-06-19T03:35:26.076Z,91.74
2023-06-19T03:36:58.242Z,92.06
2023-06-19T03:38:30.463Z,92.27
2023-06-19T03:40:02.588Z,92.37
2023-06-19T03:41:34.772Z,92.38
2023-06-19T03:43:07.004Z,92.44
2023-06-19T03:44:39.257Z,92.74
2023-06-19T03:46:11.507Z,92.66
2023-06-19T03:47:43.732Z,92.61
2023-06-19T03:49:15.868Z,92.78
2023-06-19T03:50:48.282Z,93.06
2023-06-19T03:52:20.528Z,93.11
2023-06-19T03:53:52.879Z,93.26
2023-06-19T03:55:25.161Z,93.46
2023-06-19T03:56:57.350Z,93.47
2023-06-19T03:58:29.471Z,93.63
2023-06-19T04:00:01.618Z,93.55
2023-06-19T04:01:33.892Z,93.76
2023-06-19T04:03:06.250Z,93.82
2023-06-19T04:04:38.536Z,93.78
2023-06-19T04:06:10.753Z,93.96
2023-06-19T04:07:43.083Z,94.18
2023-06-19T04:09:15.419Z,94.05
2023-06-19T04:10:50.006Z,94.10
2023-06-19T04:15:38.603Z,94.10
2023-06-19T04:17:10.862Z,94.13
2023-06-19T04:18:42.992Z,94.12
2023-06-19T04:20:15.742Z,94.25
2023-06-19T04:21:47.897Z,94.39
2023-06-19T04:23:20.146Z,94.68
2023-06-19T04:24:52.396Z,94.22
2023-06-19T04:26:25.992Z,94.54
2023-06-19T04:27:58.171Z,94.50
2023-06-19T04:29:33.068Z,94.71
2023-06-19T04:31:05.165Z,94.80
2023-06-19T04:32:37.529Z,94.90
2023-06-19T04:34:09.754Z,94.88
2023-06-19T04:35:42.058Z,94.64
2023-06-19T04:37:14.642Z,94.72
2023-06-19T04:38:46.839Z,94.50
2023-06-19T04:40:18.985Z,94.71
2023-06-19T04:41:51.295Z,94.81
2023-06-19T04:43:26.186Z,94.69
2023-06-19T04:45:00.652Z,94.82
2023-06-19T04:46:33.042Z,94.85
2023-06-19T04:48:05.759Z,94.90
2023-06-19T04:49:37.961Z,95.38
2023-06-19T04:51:10.205Z,95.51
2023-06-19T04:52:42.372Z,95.40
2023-06-19T04:54:14.679Z,95.33
2023-06-19T04:55:46.829Z,95.64
2023-06-19T04:57:19.012Z,95.05
2023-06-19T04:58:52.678Z,94.82
2023-06-19T05:00:25.493Z,94.34
2023-06-19T05:01:59.073Z,94.41
2023-06-19T05:03:31.082Z,93.81
2023-06-19T05:05:03.962Z,94.32
2023-06-19T05:06:36.331Z,94.30
2023-06-19T05:08:08.480Z,94.67
2023-06-19T05:09:40.585Z,94.52
2023-06-19T05:11:12.758Z,94.43
2023-06-19T05:12:44.966Z,94.36
2023-06-19T05:14:17.330Z,94.46
2023-06-19T05:15:50.108Z,94.35
2023-06-19T05:17:22.361Z,94.24
2023-06-19T05:18:54.724Z,94.03
2023-06-19T05:20:27.085Z,94.31
2023-06-19T05:21:59.397Z,94.07
2023-06-19T05:23:31.550Z,94.14
2023-06-19T05:25:04.436Z,94.02
2023-06-19T05:26:38.127Z,93.70
2023-06-19T05:28:12.469Z,93.53
2023-06-19T05:29:44.647Z,93.48
2023-06-19T05:31:16.951Z,93.19
2023-06-19T05:32:49.240Z,92.94
2023-06-19T05:34:21.429Z,92.13
2023-06-19T05:35:55.435Z,91.53
2023-06-19T05:37:28.707Z,91.15
2023-06-19T05:39:00.680Z,90.21
2023-06-19T05:40:35.957Z,90.47
2023-06-19T05:42:08.608Z,90.27
2023-06-19T05:43:40.844Z,89.86
2023-06-19T05:45:13.089Z,89.41
2023-06-19T05:46:45.310Z,89.14
2023-06-19T05:48:17.569Z,89.55
2023-06-19T05:49:50.221Z,89.72
2023-06-19T05:51:22.516Z,88.78
2023-06-19T05:52:54.695Z,88.54
2023-06-19T05:54:27.555Z,87.62
2023-06-19T05:56:00.042Z,87.74
2023-06-19T05:57:32.260Z,87.63
2023-06-19T05:59:04.501Z,87.53
2023-06-19T06:12:51.061Z,75.76
2023-06-19T06:14:23.421Z,74.93
2023-06-19T06:15:55.626Z,75.79
2023-06-19T06:17:27.875Z,75.19
2023-06-19T06:19:00.822Z,75.59
2023-06-19T06:20:33.169Z,75.24
2023-06-19T06:22:05.545Z,73.98
2023-06-19T06:23:37.769Z,72.71
2023-06-19T06:25:13.503Z,71.39
2023-06-19T06:26:46.631Z,71.17
2023-06-19T06:28:19.209Z,69.83
2023-06-19T06:29:51.364Z,70.78
2023-06-19T06:31:26.840Z,69.81
2023-06-19T06:32:59.660Z,70.74
2023-06-19T06:34:31.928Z,70.93
2023-06-19T06:36:05.207Z,70.72
2023-06-19T06:37:38.830Z,68.77
2023-06-19T06:39:12.250Z,68.55
2023-06-19T06:40:44.739Z,68.83
2023-06-19T06:42:17.701Z,69.02
2023-06-19T06:43:49.976Z,68.78
2023-06-19T06:45:22.253Z,68.58
2023-06-19T06:46:54.453Z,69.33
2023-06-19T06:48:26.613Z,69.09
2023-06-19T06:49:58.785Z,67.42
2023-06-19T06:51:31.049Z,67.60
2023-06-19T06:53:03.265Z,69.13
2023-06-19T06:54:35.560Z,66.67
2023-06-19T06:56:07.756Z,67.71
2023-06-19T06:57:40.123Z,67.18
2023-06-19T06:59:12.288Z,67.08
2023-06-19T07:00:44.657Z,67.36
2023-06-19T07:02:16.944Z,66.19
2023-06-19T07:14:39.302Z,65.46
2023-06-19T07:16:11.583Z,65.96
2023-06-19T07:17:45.688Z,64.31
2023-06-19T07:19:18.025Z,64.82
2023-06-19T07:20:50.291Z,64.10
2023-06-19T07:40:08.152Z,62.80
2023-06-19T07:41:40.595Z,62.91
2023-06-19T07:43:12.792Z,63.83
2023-06-19T07:44:47.651Z,63.70
2023-06-19T07:46:19.777Z,63.99
2023-06-19T07:47:58.714Z,61.08
2023-06-19T07:49:30.896Z,58.18
2023-06-19T07:51:03.102Z,59.27
2023-06-19T07:52:35.554Z,58.42
2023-06-19T07:54:07.766Z,58.09
2023-06-19T07:55:39.902Z,58.11
2023-06-19T07:57:12.099Z,57.50
2023-06-19T07:58:44.242Z,57.62
2023-06-19T08:00:16.632Z,56.32
2023-06-19T08:01:48.784Z,55.67
2023-06-19T08:03:21.160Z,57.17
2023-06-19T08:04:53.399Z,56.15
2023-06-19T08:06:25.785Z,55.45
2023-06-19T08:08:00.817Z,55.54
2023-06-19T08:09:33.337Z,55.75
2023-06-19T08:11:05.866Z,55.57
2023-06-19T08:12:38.189Z,55.73
2023-06-19T08:14:10.383Z,53.67
2023-06-19T08:15:42.848Z,53.81
2023-06-19T08:17:15.358Z,55.41
2023-06-19T08:18:48.033Z,55.80
2023-06-19T08:20:21.549Z,54.63
2023-06-19T08:21:53.756Z,54.46
2023-06-19T08:23:25.916Z,54.64
2023-06-19T08:24:58.117Z,53.28
2023-06-19T08:26:30.264Z,53.70
2023-06-19T08:28:02.430Z,53.77
2023-06-19T08:29:35.082Z,53.60
2023-06-19T08:31:07.320Z,53.60
2023-06-19T08:32:39.528Z,53.39
2023-06-19T08:34:11.791Z,53.03
2023-06-19T08:35:45.346Z,53.89
2023-06-19T08:37:19.838Z,54.96
2023-06-19T08:38:53.882Z,55.27
2023-06-19T08:40:26.633Z,54.11
2023-06-19T08:41:59.229Z,53.64
2023-06-19T08:43:31.391Z,52.09
2023-06-19T08:45:03.716Z,53.50
2023-06-19T08:46:38.614Z,52.56
2023-06-19T08:48:15.284Z,52.39
2023-06-19T08:49:48.084Z,53.45
2023-06-19T08:51:20.252Z,53.81
2023-06-19T08:52:55.008Z,54.07
2023-06-19T08:56:10.711Z,53.33
2023-06-19T08:57:42.876Z,52.45
2023-06-19T08:59:16.886Z,51.54
2023-06-19T09:00:49.219Z,52.03
2023-06-19T09:02:21.908Z,52.80
2023-06-19T09:03:55.432Z,53.99
2023-06-19T09:05:27.804Z,55.64
2023-06-19T09:07:05.270Z,54.76
2023-06-19T09:08:38.985Z,55.91
2023-06-19T09:10:19.881Z,52.55
2023-06-19T09:12:01.121Z,50.70
2023-06-19T09:13:34.082Z,51.86
2023-06-19T09:15:13.924Z,53.06
2023-06-19T09:16:46.121Z,52.72
2023-06-19T09:18:18.505Z,53.66
2023-06-19T09:19:52.302Z,52.90
2023-06-19T09:21:27.465Z,54.47
2023-06-19T09:51:34.716Z,52.90
2023-06-19T09:58:40.217Z,54.27
2023-06-19T10:00:18.456Z,54.21
2023-06-19T10:04:44.824Z,51.11
2023-06-19T10:15:36.390Z,51.73
2023-06-19T10:17:11.772Z,52.70
2023-06-19T10:25:37.910Z,55.22
2023-06-19T10:27:11.814Z,52.77
2023-06-19T10:28:48.029Z,49.95
2023-06-19T10:30:21.344Z,50.35
2023-06-19T10:31:53.905Z,50.88
2023-06-19T10:33:28.533Z,51.13
2023-06-19T10:35:00.608Z,52.54
2023-06-19T10:36:33.432Z,52.24
2023-06-19T10:38:06.186Z,51.43
2023-06-19T10:39:38.361Z,51.92
2023-06-19T10:41:18.782Z,51.44
2023-06-19T10:42:51.133Z,49.66
2023-06-19T10:44:26.409Z,49.82
2023-06-19T10:45:58.645Z,50.83
2023-06-19T10:47:30.904Z,51.93
2023-06-19T10:49:06.026Z,49.69
2023-06-19T10:50:44.179Z,52.06
2023-06-19T10:52:17.519Z,50.40
2023-06-19T10:53:49.656Z,49.12
2023-06-19T10:55:22.492Z,50.32
2023-06-19T10:56:55.980Z,48.20
2023-06-19T10:58:29.633Z,49.54
2023-06-19T11:00:01.866Z,51.43
2023-06-19T11:01:38.853Z,50.02
2023-06-19T11:03:11.176Z,46.63
2023-06-19T11:04:43.422Z,47.26
2023-06-19T11:06:22.210Z,47.75
2023-06-19T11:07:59.345Z,48.46
2023-06-19T11:09:32.534Z,48.79
2023-06-19T11:11:04.734Z,49.06
2023-06-19T11:12:36.998Z,48.33
2023-06-19T11:14:10.246Z,48.46
2023-06-19T11:15:43.789Z,49.69
2023-06-19T11:17:16.767Z,48.90
2023-06-19T11:18:48.871Z,46.63
2023-06-19T11:20:21.066Z,48.69
2023-06-19T11:21:53.960Z,49.49
2023-06-19T11:23:31.820Z,48.35
2023-06-19T11:25:05.549Z,51.91
2023-06-19T11:26:45.435Z,50.01
2023-06-19T11:28:27.309Z,49.03
2023-06-19T11:30:01.880Z,47.84
2023-06-19T11:44:13.116Z,48.02
2023-06-19T11:45:53.070Z,47.44
2023-06-19T11:47:25.458Z,47.65
2023-06-19T11:49:20.102Z,50.10
2023-06-19T11:50:53.415Z,48.80
2023-06-19T11:52:25.803Z,48.32
2023-06-19T11:53:57.964Z,47.68
2023-06-19T11:55:30.203Z,48.11
2023-06-19T11:57:02.423Z,46.36
2023-06-19T12:34:01.648Z,45.47
2023-06-19T12:35:42.381Z,45.42
2023-06-19T12:37:20.402Z,43.42
2023-06-19T12:38:55.588Z,43.39
2023-06-19T12:40:27.994Z,41.53
2023-06-19T12:42:00.578Z,41.71
2023-06-19T12:43:35.589Z,42.08
2023-06-19T12:45:08.355Z,41.42
2023-06-19T12:46:41.159Z,40.92
2023-06-19T13:34:31.443Z,38.70
2023-06-19T13:36:03.778Z,38.36
2023-06-19T13:37:36.882Z,38.75
2023-06-19T13:39:09.091Z,38.45
2023-06-19T13:40:41.352Z,39.14
2023-06-19T13:42:14.191Z,39.05
2023-06-19T13:43:47.386Z,39.94
2023-06-19T13:45:19.573Z,39.35
2023-06-19T13:46:51.831Z,38.61
2023-06-19T13:48:24.073Z,39.33
2023-06-19T13:49:56.420Z,39.67
2023-06-19T13:51:28.707Z,39.42
2023-06-19T15:46:18.374Z,36.90
2023-06-19T15:47:50.781Z,36.78
2023-06-19T15:49:22.890Z,36.09
2023-06-19T15:50:55.105Z,36.44
2023-06-19T15:52:28.543Z,37.98
2023-06-19T15:54:00.692Z,37.11
2023-06-19T15:55:33.307Z,37.71
2023-06-19T15:57:05.723Z,36.53
2023-06-19T15:58:38.056Z,37.52
2023-06-19T16:00:12.416Z,38.13
2023-06-19T16:01:44.845Z,38.36
2023-06-19T16:03:17.127Z,39.18
2023-06-19T16:04:49.467Z,39.81
2023-06-19T16:06:21.651Z,40.33
2023-06-19T16:07:54.290Z,41.01
2023-06-19T16:09:27.613Z,41.40
2023-06-19T16:11:00.003Z,39.66
2023-06-19T16:12:32.202Z,39.96
2023-06-19T16:14:04.371Z,40.59
2023-06-19T16:15:36.763Z,39.30
2023-06-19T16:17:08.907Z,39.72
2023-06-19T16:18:41.039Z,39.38
2023-06-19T16:20:13.481Z,39.05
2023-06-19T16:21:45.778Z,38.56
2023-06-19T16:23:18.035Z,38.95
2023-06-19T16:24:50.183Z,39.05
2023-06-19T16:26:22.378Z,39.26
2023-06-19T16:27:54.942Z,40.15
2023-06-19T16:29:27.077Z,41.73
2023-06-19T16:30:59.262Z,43.17
2023-06-19T16:32:31.531Z,43.70
2023-06-19T16:34:03.933Z,44.58
2023-06-19T16:35:36.052Z,44.28
2023-06-19T16:37:08.334Z,44.12
2023-06-19T16:38:40.622Z,43.88
2023-06-19T16:40:13.012Z,47.08
2023-06-19T16:41:46.944Z,47.52
2023-06-19T16:43:19.184Z,48.64
2023-06-19T16:44:51.549Z,46.85
2023-06-19T16:46:23.808Z,45.55
2023-06-19T16:47:56.357Z,46.03
2023-06-19T16:49:28.607Z,45.14
2023-06-19T16:51:00.863Z,44.36
2023-06-19T16:52:33.114Z,44.95
2023-06-19T16:54:05.435Z,43.14
2023-06-19T16:55:37.635Z,44.01
2023-06-19T16:57:09.935Z,42.52
2023-06-19T17:02:02.713Z,42.42
2023-06-19T17:03:34.930Z,41.96
2023-06-19T17:05:07.455Z,41.95
2023-06-19T17:09:52.883Z,44.56
2023-06-19T17:11:28.101Z,44.53
2023-06-19T17:13:00.377Z,44.85
2023-06-19T17:14:32.519Z,44.62
2023-06-19T17:16:04.827Z,45.40
2023-06-19T17:17:37.148Z,45.60
2023-06-19T17:19:09.329Z,46.94
2023-06-19T17:20:42.996Z,47.04
2023-06-19T17:22:15.306Z,47.18
2023-06-19T17:23:48.352Z,48.76
2023-06-19T17:25:20.598Z,51.50
2023-06-19T17:26:58.674Z,51.37
2023-06-19T17:28:31.001Z,53.29
2023-06-19T17:30:03.812Z,53.44
2023-06-19T17:31:36.242Z,53.50
2023-06-19T17:33:11.074Z,55.00
2023-06-19T17:34:43.264Z,57.52
2023-06-19T17:36:15.365Z,56.53
2023-06-19T17:37:47.594Z,57.54
2023-06-19T17:39:19.770Z,58.48
2023-06-19T17:40:51.979Z,59.21
2023-06-19T17:42:24.486Z,59.60
2023-06-19T17:43:56.592Z,60.92
2023-06-19T17:45:28.771Z,62.51
2023-06-19T17:47:01.013Z,62.78
2023-06-19T17:48:33.133Z,63.91
2023-06-19T17:50:05.705Z,64.46
2023-06-19T17:51:37.920Z,64.93
2023-06-19T17:53:11.369Z,65.01
2023-06-19T17:54:46.273Z,65.77
2023-06-19T17:56:19.357Z,66.29
2023-06-19T17:57:51.380Z,66.91
2023-06-19T17:59:23.556Z,66.99
2023-06-19T18:00:55.729Z,67.50
2023-06-19T18:02:29.190Z,68.09
2023-06-19T18:04:01.421Z,68.02
2023-06-19T18:05:33.640Z,68.46
2023-06-19T18:07:06.165Z,68.06
2023-06-19T18:08:38.347Z,68.22
2023-06-19T18:10:13.711Z,68.86
2023-06-19T18:11:47.834Z,68.96
2023-06-19T18:13:20.030Z,69.62
2023-06-19T18:14:52.264Z,69.41
2023-06-19T18:16:24.544Z,69.21
2023-06-19T18:17:56.871Z,70.07
2023-06-19T18:19:30.091Z,70.41
2023-06-19T18:21:02.076Z,70.66
2023-06-19T18:22:34.481Z,71.28
2023-06-19T18:31:35.650Z,71.76
2023-06-19T18:33:08.460Z,72.06
2023-06-19T18:34:40.712Z,72.39
2023-06-19T18:41:10.127Z,73.62
2023-06-19T18:42:42.560Z,74.02
2023-06-19T18:44:14.704Z,74.15
2023-06-19T18:45:46.977Z,74.63
2023-06-19T18:47:19.155Z,74.86
2023-06-19T18:48:51.260Z,75.35
2023-06-19T18:50:25.541Z,75.52
2023-06-19T18:51:57.863Z,75.78
2023-06-19T20:13:27.182Z,82.04
2023-06-19T20:14:59.627Z,82.13
2023-06-19T20:16:32.423Z,82.15
2023-06-19T20:18:04.826Z,82.14
2023-06-19T20:19:36.961Z,81.88
2023-06-19T20:21:09.120Z,82.07
2023-06-19T20:22:41.333Z,82.05
2023-06-19T20:24:13.514Z,82.47
2023-06-19T20:25:46.664Z,82.39
2023-06-19T20:27:18.875Z,82.66
2023-06-19T20:28:51.342Z,82.33
2023-06-19T20:30:25.583Z,82.37
2023-06-19T20:31:57.870Z,82.48
2023-06-19T20:33:30.078Z,82.22
2023-06-19T20:35:02.440Z,82.24
2023-06-19T20:36:34.748Z,82.45
2023-06-19T20:38:07.028Z,82.53
2023-06-19T20:39:39.320Z,82.45
2023-06-19T20:42:45.911Z,82.45
2023-06-19T20:44:19.042Z,82.55
2023-06-19T20:45:51.135Z,82.90
2023-06-19T20:47:23.809Z,82.93
2023-06-19T20:48:55.984Z,83.01
2023-06-19T20:50:28.382Z,82.91
2023-06-19T20:52:00.794Z,82.74
2023-06-19T20:53:32.864Z,82.89
2023-06-19T20:55:07.453Z,83.04
2023-06-19T20:56:39.884Z,82.77
2023-06-19T20:58:12.376Z,82.75
2023-06-19T20:59:44.630Z,82.81
2023-06-19T21:01:16.823Z,82.96
2023-06-19T21:02:49.297Z,82.95
2023-06-19T21:04:21.459Z,83.01
2023-06-19T21:05:53.732Z,83.16
2023-06-19T21:07:25.923Z,83.28
2023-06-19T21:09:00.760Z,83.36
2023-06-19T21:10:33.177Z,83.50
2023-06-19T21:12:05.778Z,83.40
2023-06-19T21:13:37.952Z,83.25
2023-06-19T21:15:10.558Z,83.40
2023-06-19T21:16:43.038Z,83.42
2023-06-19T21:18:16.887Z,83.51
2023-06-19T21:19:49.127Z,83.22
2023-06-19T21:21:21.422Z,83.43
2023-06-19T21:22:54.418Z,83.59
2023-06-19T21:25:59.557Z,83.30
2023-06-19T21:27:31.815Z,83.61
2023-06-19T21:29:04.018Z,83.45
2023-06-19T21:30:36.418Z,83.75
2023-06-19T21:32:09.263Z,83.74
2023-06-19T21:33:42.411Z,83.61
2023-06-19T21:35:14.526Z,83.66
2023-06-19T21:36:46.679Z,83.90
2023-06-19T21:38:19.298Z,83.77
2023-06-19T21:39:51.599Z,84.14
2023-06-19T21:46:17.025Z,83.89
2023-06-19T21:47:51.162Z,84.13
2023-06-19T21:49:23.795Z,84.29
2023-06-19T21:50:56.428Z,84.58
2023-06-19T21:52:29.013Z,84.61
2023-06-19T21:54:01.656Z,84.64
2023-06-19T21:55:33.793Z,84.67
2023-06-19T21:57:06.359Z,84.82
2023-06-19T21:58:38.456Z,85.04
2023-06-19T22:00:13.565Z,84.90
2023-06-19T22:01:45.725Z,84.87
2023-06-19T22:03:18.073Z,85.14
2023-06-19T22:04:50.212Z,85.02
2023-06-19T22:06:22.466Z,84.92
2023-06-19T22:07:55.192Z,85.17
2023-06-19T22:09:27.413Z,84.73
2023-06-19T22:10:59.874Z,84.95
2023-06-19T22:12:32.097Z,84.77
2023-06-19T22:14:04.275Z,85.06
2023-06-19T22:15:36.379Z,85.12
2023-06-19T22:17:09.182Z,84.98
2023-06-19T22:18:41.998Z,85.29
2023-06-19T22:20:20.347Z,85.42
2023-06-19T22:21:52.533Z,85.22
2023-06-19T22:23:24.771Z,85.43
2023-06-19T22:24:56.944Z,85.13
2023-06-19T22:26:29.044Z,85.25
2023-06-19T22:28:01.343Z,85.33
2023-06-19T22:29:33.845Z,85.46
2023-06-19T22:31:07.895Z,85.60
2023-06-19T22:32:40.406Z,85.53
2023-06-19T22:34:12.845Z,85.84
2023-06-19T22:35:45.051Z,85.63
2023-06-19T22:37:18.998Z,85.97
2023-06-19T22:38:51.646Z,85.75
2023-06-19T22:40:24.316Z,86.06
2023-06-19T22:41:56.684Z,86.07
2023-06-19T22:43:28.876Z,85.96
2023-06-19T22:45:01.550Z,85.88
2023-06-19T22:46:34.053Z,85.83
2023-06-19T22:51:09.573Z,85.44
2023-06-19T22:52:42.017Z,85.60
2023-06-19T22:54:14.229Z,85.56
2023-06-19T22:55:46.381Z,85.58
2023-06-19T22:57:18.509Z,85.43
2023-06-19T22:58:50.688Z,85.54
2023-06-19T23:00:22.843Z,85.60
2023-06-19T23:01:55.056Z,85.56
2023-06-19T23:03:27.324Z,85.51
2023-06-19T23:04:59.741Z,85.57
2023-06-19T23:06:32.364Z,85.59
2023-06-19T23:08:04.730Z,85.71
2023-06-19T23:09:36.854Z,85.77
2023-06-19T23:11:10.154Z,86.15
2023-06-19T23:12:42.136Z,85.97
2023-06-19T23:14:14.843Z,86.10
2023-06-19T23:15:46.910Z,85.95
2023-06-19T23:17:22.036Z,86.07
2023-06-19T23:18:54.147Z,86.03
2023-06-19T23:20:26.308Z,86.18
2023-06-19T23:21:58.376Z,86.16
2023-06-19T23:23:31.886Z,86.43
2023-06-19T23:25:04.145Z,86.39
2023-06-19T23:26:36.256Z,86.35
2023-06-19T23:28:08.366Z,86.44
2023-06-19T23:29:40.505Z,86.10
2023-06-19T23:31:12.805Z,86.30
2023-06-19T23:32:44.903Z,85.78
2023-06-19T23:34:17.116Z,85.93
2023-06-19T23:46:21.874Z,86.08
2023-06-19T23:47:55.164Z,86.05
2023-06-19T23:49:27.183Z,85.95
2023-06-19T23:50:59.471Z,86.11
2023-06-19T23:52:42.834Z,86.38
2023-06-19T23:54:16.291Z,86.46
2023-06-19T23:55:48.515Z,86.42
2023-06-19T23:57:20.673Z,86.52
2023-06-19T23:58:53.111Z,86.51
